sensor_id;sensor_type;location;lat;lon;timestamp;P1;durP1;ratioP1;P2;durP2;ratioP2
9729;SDS011;4904;49.152;11.004;2023-01-30T00:01:41;16.43;;;12.37;;
9729;SDS011;4904;49.152;11.004;2023-01-30T00:04:09;13.07;;;9.57;;
9729;SDS011;4904;49.152;11.004;2023-01-30T00:06:37;15.30;;;11.43;;
9729;SDS011;4904;49.152;11.004;2023-01-30T00:09:06;15.13;;;10.77;;
9729;SDS011;4904;49.152;11.004;2023-01-30T00:11:33;12.77;;;9.93;;
9729;SDS011;4904;49.152;11.004;2023-01-30T00:14:00;15.67;;;11.77;;
9729;SDS011;4904;49.152;11.004;2023-01-30T00:16:27;16.77;;;12.23;;
9729;SDS011;4904;49.152;11.004;2023-01-30T00:18:54;16.10;;;12.37;;
9729;SDS011;4904;49.152;11.004;2023-01-30T00:21:20;13.00;;;10.20;;
9729;SDS011;4904;49.152;11.004;2023-01-30T00:23:47;16.40;;;11.90;;
9729;SDS011;4904;49.152;11.004;2023-01-30T00:26:16;16.93;;;12.23;;
9729;SDS011;4904;49.152;11.004;2023-01-30T00:28:42;17.27;;;12.07;;
9729;SDS011;4904;49.152;11.004;2023-01-30T00:31:09;17.83;;;13.03;;
9729;SDS011;4904;49.152;11.004;2023-01-30T00:33:37;15.10;;;11.83;;
9729;SDS011;4904;49.152;11.004;2023-01-30T00:36:04;15.13;;;10.77;;
9729;SDS011;4904;49.152;11.004;2023-01-30T00:38:31;16.67;;;13.00;;
9729;SDS011;4904;49.152;11.004;2023-01-30T00:40:59;15.83;;;11.63;;
9729;SDS011;4904;49.152;11.004;2023-01-30T00:43:27;19.53;;;13.07;;
9729;SDS011;4904;49.152;11.004;2023-01-30T00:46:13;15.33;;;11.87;;
9729;SDS011;4904;49.152;11.004;2023-01-30T00:49:02;16.73;;;12.23;;
9729;SDS011;4904;49.152;11.004;2023-01-30T00:51:29;14.40;;;11.83;;
9729;SDS011;4904;49.152;11.004;2023-01-30T00:53:56;15.17;;;11.77;;
9729;SDS011;4904;49.152;11.004;2023-01-30T00:56:23;16.47;;;11.27;;
9729;SDS011;4904;49.152;11.004;2023-01-30T00:58:51;16.40;;;12.10;;
9729;SDS011;4904;49.152;11.004;2023-01-30T01:01:18;14.37;;;10.60;;
9729;SDS011;4904;49.152;11.004;2023-01-30T01:03:45;15.07;;;10.83;;
9729;SDS011;4904;49.152;11.004;2023-01-30T01:06:12;12.87;;;9.30;;
9729;SDS011;4904;49.152;11.004;2023-01-30T01:08:39;11.47;;;7.10;;
9729;SDS011;4904;49.152;11.004;2023-01-30T01:11:06;10.87;;;6.27;;
9729;SDS011;4904;49.152;11.004;2023-01-30T01:13:33;12.37;;;9.57;;
9729;SDS011;4904;49.152;11.004;2023-01-30T01:16:01;13.77;;;9.67;;
9729;SDS011;4904;49.152;11.004;2023-01-30T01:18:28;12.80;;;9.13;;
9729;SDS011;4904;49.152;11.004;2023-01-30T01:20:55;11.87;;;7.93;;
9729;SDS011;4904;49.152;11.004;2023-01-30T01:23:23;11.97;;;9.33;;
9729;SDS011;4904;49.152;11.004;2023-01-30T01:25:49;13.30;;;7.93;;
9729;SDS011;4904;49.152;11.004;2023-01-30T01:28:16;12.67;;;9.50;;
9729;SDS011;4904;49.152;11.004;2023-01-30T01:30:46;12.50;;;9.20;;
9729;SDS011;4904;49.152;11.004;2023-01-30T01:33:14;13.17;;;9.20;;
9729;SDS011;4904;49.152;11.004;2023-01-30T01:35:41;14.33;;;9.60;;
9729;SDS011;4904;49.152;11.004;2023-01-30T01:38:09;16.27;;;12.40;;
9729;SDS011;4904;49.152;11.004;2023-01-30T01:40:36;12.67;;;9.23;;
9729;SDS011;4904;49.152;11.004;2023-01-30T01:43:20;17.10;;;11.93;;
9729;SDS011;4904;49.152;11.004;2023-01-30T01:45:48;15.67;;;11.23;;
9729;SDS011;4904;49.152;11.004;2023-01-30T01:48:24;11.93;;;8.43;;
9729;SDS011;4904;49.152;11.004;2023-01-30T01:50:56;16.03;;;11.50;;
9729;SDS011;4904;49.152;11.004;2023-01-30T01:53:28;13.47;;;10.73;;
9729;SDS011;4904;49.152;11.004;2023-01-30T01:55:58;15.97;;;12.40;;
9729;SDS011;4904;49.152;11.004;2023-01-30T01:58:28;15.33;;;9.40;;
9729;SDS011;4904;49.152;11.004;2023-01-30T02:01:01;13.70;;;10.60;;
9729;SDS011;4904;49.152;11.004;2023-01-30T02:03:29;14.47;;;10.77;;
9729;SDS011;4904;49.152;11.004;2023-01-30T02:06:00;10.73;;;8.23;;
9729;SDS011;4904;49.152;11.004;2023-01-30T02:08:29;11.43;;;8.53;;
9729;SDS011;4904;49.152;11.004;2023-01-30T02:11:02;15.87;;;11.63;;
9729;SDS011;4904;49.152;11.004;2023-01-30T02:13:33;12.87;;;9.57;;
9729;SDS011;4904;49.152;11.004;2023-01-30T02:16:03;11.67;;;8.80;;
9729;SDS011;4904;49.152;11.004;2023-01-30T02:18:33;13.43;;;9.93;;
9729;SDS011;4904;49.152;11.004;2023-01-30T02:21:05;11.17;;;7.90;;
9729;SDS011;4904;49.152;11.004;2023-01-30T02:24:11;10.70;;;8.37;;
9729;SDS011;4904;49.152;11.004;2023-01-30T02:27:02;15.60;;;11.93;;
9729;SDS011;4904;49.152;11.004;2023-01-30T02:32:55;14.37;;;10.67;;
9729;SDS011;4904;49.152;11.004;2023-01-30T02:35:34;16.00;;;12.37;;
9729;SDS011;4904;49.152;11.004;2023-01-30T02:38:16;13.47;;;9.87;;
9729;SDS011;4904;49.152;11.004;2023-01-30T02:40:51;13.40;;;10.07;;
9729;SDS011;4904;49.152;11.004;2023-01-30T02:43:30;15.57;;;9.97;;
9729;SDS011;4904;49.152;11.004;2023-01-30T02:46:03;14.53;;;11.70;;
9729;SDS011;4904;49.152;11.004;2023-01-30T02:48:38;13.97;;;10.90;;
9729;SDS011;4904;49.152;11.004;2023-01-30T02:51:09;13.87;;;11.43;;
9729;SDS011;4904;49.152;11.004;2023-01-30T02:53:39;14.47;;;10.30;;
9729;SDS011;4904;49.152;11.004;2023-01-30T02:56:06;15.60;;;12.67;;
9729;SDS011;4904;49.152;11.004;2023-01-30T02:58:33;14.00;;;9.23;;
9729;SDS011;4904;49.152;11.004;2023-01-30T03:01:19;11.47;;;8.33;;
9729;SDS011;4904;49.152;11.004;2023-01-30T03:04:02;13.93;;;10.70;;
9729;SDS011;4904;49.152;11.004;2023-01-30T03:06:45;13.43;;;11.43;;
9729;SDS011;4904;49.152;11.004;2023-01-30T03:09:24;13.90;;;11.20;;
9729;SDS011;4904;49.152;11.004;2023-01-30T03:12:02;12.00;;;8.93;;
9729;SDS011;4904;49.152;11.004;2023-01-30T03:14:36;13.20;;;10.70;;
9729;SDS011;4904;49.152;11.004;2023-01-30T03:17:11;13.80;;;10.80;;
9729;SDS011;4904;49.152;11.004;2023-01-30T03:19:41;15.10;;;10.60;;
9729;SDS011;4904;49.152;11.004;2023-01-30T03:22:08;16.80;;;12.80;;
9729;SDS011;4904;49.152;11.004;2023-01-30T03:24:35;13.90;;;10.53;;
9729;SDS011;4904;49.152;11.004;2023-01-30T03:27:02;14.93;;;10.07;;
9729;SDS011;4904;49.152;11.004;2023-01-30T03:29:32;14.77;;;11.63;;
9729;SDS011;4904;49.152;11.004;2023-01-30T03:31:59;15.40;;;12.63;;
9729;SDS011;4904;49.152;11.004;2023-01-30T03:34:27;15.63;;;10.93;;
9729;SDS011;4904;49.152;11.004;2023-01-30T03:36:55;12.17;;;8.80;;
9729;SDS011;4904;49.152;11.004;2023-01-30T03:39:22;13.63;;;10.63;;
9729;SDS011;4904;49.152;11.004;2023-01-30T03:41:50;12.53;;;9.83;;
9729;SDS011;4904;49.152;11.004;2023-01-30T03:44:17;13.97;;;10.10;;
9729;SDS011;4904;49.152;11.004;2023-01-30T03:46:45;14.57;;;11.00;;
9729;SDS011;4904;49.152;11.004;2023-01-30T03:49:12;13.03;;;10.43;;
9729;SDS011;4904;49.152;11.004;2023-01-30T03:51:38;13.83;;;9.63;;
9729;SDS011;4904;49.152;11.004;2023-01-30T03:54:07;13.77;;;10.43;;
9729;SDS011;4904;49.152;11.004;2023-01-30T03:56:34;11.13;;;8.33;;
9729;SDS011;4904;49.152;11.004;2023-01-30T03:59:00;12.27;;;8.63;;
9729;SDS011;4904;49.152;11.004;2023-01-30T04:01:27;12.57;;;10.77;;
9729;SDS011;4904;49.152;11.004;2023-01-30T04:03:54;15.10;;;12.03;;
9729;SDS011;4904;49.152;11.004;2023-01-30T04:06:21;13.77;;;11.43;;
9729;SDS011;4904;49.152;11.004;2023-01-30T04:08:50;12.87;;;9.37;;
9729;SDS011;4904;49.152;11.004;2023-01-30T04:11:19;13.90;;;10.40;;
9729;SDS011;4904;49.152;11.004;2023-01-30T04:13:46;13.90;;;9.53;;
9729;SDS011;4904;49.152;11.004;2023-01-30T04:16:13;13.30;;;10.30;;
9729;SDS011;4904;49.152;11.004;2023-01-30T04:18:42;13.20;;;10.17;;
9729;SDS011;4904;49.152;11.004;2023-01-30T04:21:09;13.43;;;8.87;;
9729;SDS011;4904;49.152;11.004;2023-01-30T04:23:36;14.17;;;10.27;;
9729;SDS011;4904;49.152;11.004;2023-01-30T04:26:03;15.27;;;11.30;;
9729;SDS011;4904;49.152;11.004;2023-01-30T04:28:32;12.13;;;9.07;;
9729;SDS011;4904;49.152;11.004;2023-01-30T04:30:59;14.23;;;10.90;;
9729;SDS011;4904;49.152;11.004;2023-01-30T04:33:26;14.30;;;10.60;;
9729;SDS011;4904;49.152;11.004;2023-01-30T04:35:54;12.40;;;8.17;;
9729;SDS011;4904;49.152;11.004;2023-01-30T04:38:24;15.43;;;12.63;;
9729;SDS011;4904;49.152;11.004;2023-01-30T04:40:53;14.20;;;11.53;;
9729;SDS011;4904;49.152;11.004;2023-01-30T04:43:22;10.30;;;7.40;;
9729;SDS011;4904;49.152;11.004;2023-01-30T04:45:52;14.33;;;10.33;;
9729;SDS011;4904;49.152;11.004;2023-01-30T04:48:20;9.20;;;7.17;;
9729;SDS011;4904;49.152;11.004;2023-01-30T04:50:49;13.90;;;10.20;;
9729;SDS011;4904;49.152;11.004;2023-01-30T04:53:17;12.80;;;9.83;;
9729;SDS011;4904;49.152;11.004;2023-01-30T04:55:45;14.33;;;10.60;;
9729;SDS011;4904;49.152;11.004;2023-01-30T04:58:13;16.40;;;12.00;;
9729;SDS011;4904;49.152;11.004;2023-01-30T05:00:40;12.37;;;9.33;;
9729;SDS011;4904;49.152;11.004;2023-01-30T05:03:08;14.57;;;10.90;;
9729;SDS011;4904;49.152;11.004;2023-01-30T05:05:35;13.43;;;9.77;;
9729;SDS011;4904;49.152;11.004;2023-01-30T05:08:03;12.67;;;9.40;;
9729;SDS011;4904;49.152;11.004;2023-01-30T05:10:30;13.37;;;9.43;;
9729;SDS011;4904;49.152;11.004;2023-01-30T05:13:00;14.13;;;10.17;;
9729;SDS011;4904;49.152;11.004;2023-01-30T05:15:28;12.50;;;8.40;;
9729;SDS011;4904;49.152;11.004;2023-01-30T05:17:55;15.50;;;11.17;;
9729;SDS011;4904;49.152;11.004;2023-01-30T05:20:23;21.03;;;12.37;;
9729;SDS011;4904;49.152;11.004;2023-01-30T05:22:50;16.53;;;9.87;;
9729;SDS011;4904;49.152;11.004;2023-01-30T05:25:17;11.13;;;8.80;;
9729;SDS011;4904;49.152;11.004;2023-01-30T05:27:44;10.40;;;8.13;;
9729;SDS011;4904;49.152;11.004;2023-01-30T05:30:11;15.80;;;9.03;;
9729;SDS011;4904;49.152;11.004;2023-01-30T05:32:38;13.03;;;11.63;;
9729;SDS011;4904;49.152;11.004;2023-01-30T05:35:06;14.20;;;11.63;;
9729;SDS011;4904;49.152;11.004;2023-01-30T05:37:34;12.67;;;10.10;;
9729;SDS011;4904;49.152;11.004;2023-01-30T05:40:03;12.70;;;9.77;;
9729;SDS011;4904;49.152;11.004;2023-01-30T05:42:31;15.77;;;11.00;;
9729;SDS011;4904;49.152;11.004;2023-01-30T05:44:58;10.17;;;8.20;;
9729;SDS011;4904;49.152;11.004;2023-01-30T05:47:25;14.27;;;11.13;;
9729;SDS011;4904;49.152;11.004;2023-01-30T05:49:52;11.87;;;9.87;;
9729;SDS011;4904;49.152;11.004;2023-01-30T05:52:19;14.13;;;10.70;;
9729;SDS011;4904;49.152;11.004;2023-01-30T05:54:47;11.87;;;9.43;;
9729;SDS011;4904;49.152;11.004;2023-01-30T05:57:14;14.33;;;10.20;;
9729;SDS011;4904;49.152;11.004;2023-01-30T05:59:41;13.17;;;10.10;;
9729;SDS011;4904;49.152;11.004;2023-01-30T06:02:08;11.07;;;8.50;;
9729;SDS011;4904;49.152;11.004;2023-01-30T06:04:35;10.40;;;8.47;;
9729;SDS011;4904;49.152;11.004;2023-01-30T06:07:02;10.27;;;8.47;;
9729;SDS011;4904;49.152;11.004;2023-01-30T06:09:29;13.30;;;11.37;;
9729;SDS011;4904;49.152;11.004;2023-01-30T06:11:57;12.50;;;8.37;;
9729;SDS011;4904;49.152;11.004;2023-01-30T06:14:24;12.83;;;8.40;;
9729;SDS011;4904;49.152;11.004;2023-01-30T06:16:51;12.60;;;9.13;;
9729;SDS011;4904;49.152;11.004;2023-01-30T06:19:18;12.87;;;9.33;;
9729;SDS011;4904;49.152;11.004;2023-01-30T06:21:45;10.67;;;8.37;;
9729;SDS011;4904;49.152;11.004;2023-01-30T06:24:12;11.97;;;8.93;;
9729;SDS011;4904;49.152;11.004;2023-01-30T06:26:39;8.07;;;5.80;;
9729;SDS011;4904;49.152;11.004;2023-01-30T06:29:07;9.47;;;7.67;;
9729;SDS011;4904;49.152;11.004;2023-01-30T06:31:34;10.63;;;8.77;;
9729;SDS011;4904;49.152;11.004;2023-01-30T06:34:01;9.47;;;7.50;;
9729;SDS011;4904;49.152;11.004;2023-01-30T06:36:28;10.37;;;9.07;;
9729;SDS011;4904;49.152;11.004;2023-01-30T06:38:55;9.37;;;7.50;;
9729;SDS011;4904;49.152;11.004;2023-01-30T06:41:21;9.07;;;6.83;;
9729;SDS011;4904;49.152;11.004;2023-01-30T06:43:48;11.17;;;8.13;;
9729;SDS011;4904;49.152;11.004;2023-01-30T06:46:17;8.87;;;7.83;;
9729;SDS011;4904;49.152;11.004;2023-01-30T06:48:43;9.73;;;8.50;;
9729;SDS011;4904;49.152;11.004;2023-01-30T06:51:10;11.17;;;7.80;;
9729;SDS011;4904;49.152;11.004;2023-01-30T06:53:37;11.10;;;8.00;;
9729;SDS011;4904;49.152;11.004;2023-01-30T06:56:04;10.80;;;8.97;;
9729;SDS011;4904;49.152;11.004;2023-01-30T06:58:31;8.57;;;7.13;;
9729;SDS011;4904;49.152;11.004;2023-01-30T07:00:58;9.37;;;8.33;;
9729;SDS011;4904;49.152;11.004;2023-01-30T07:03:27;10.27;;;9.13;;
9729;SDS011;4904;49.152;11.004;2023-01-30T07:05:54;7.77;;;5.53;;
9729;SDS011;4904;49.152;11.004;2023-01-30T07:08:21;8.43;;;6.90;;
9729;SDS011;4904;49.152;11.004;2023-01-30T07:10:48;8.60;;;6.60;;
9729;SDS011;4904;49.152;11.004;2023-01-30T07:13:15;7.27;;;5.53;;
9729;SDS011;4904;49.152;11.004;2023-01-30T07:15:43;9.73;;;8.07;;
9729;SDS011;4904;49.152;11.004;2023-01-30T07:18:10;10.53;;;8.60;;
9729;SDS011;4904;49.152;11.004;2023-01-30T07:20:38;9.37;;;6.53;;
9729;SDS011;4904;49.152;11.004;2023-01-30T07:23:06;8.40;;;6.50;;
9729;SDS011;4904;49.152;11.004;2023-01-30T07:25:33;8.07;;;6.13;;
9729;SDS011;4904;49.152;11.004;2023-01-30T07:28:00;10.30;;;7.53;;
9729;SDS011;4904;49.152;11.004;2023-01-30T07:30:29;11.97;;;7.47;;
9729;SDS011;4904;49.152;11.004;2023-01-30T07:32:57;9.60;;;7.57;;
9729;SDS011;4904;49.152;11.004;2023-01-30T07:35:26;12.13;;;9.63;;
9729;SDS011;4904;49.152;11.004;2023-01-30T07:37:56;9.53;;;6.73;;
9729;SDS011;4904;49.152;11.004;2023-01-30T07:40:23;9.20;;;6.33;;
9729;SDS011;4904;49.152;11.004;2023-01-30T07:42:57;9.13;;;6.50;;
9729;SDS011;4904;49.152;11.004;2023-01-30T07:45:25;8.77;;;6.50;;
9729;SDS011;4904;49.152;11.004;2023-01-30T07:47:56;8.80;;;7.27;;
9729;SDS011;4904;49.152;11.004;2023-01-30T07:50:23;7.83;;;6.83;;
9729;SDS011;4904;49.152;11.004;2023-01-30T07:52:50;9.20;;;6.70;;
9729;SDS011;4904;49.152;11.004;2023-01-30T07:55:18;8.70;;;7.37;;
9729;SDS011;4904;49.152;11.004;2023-01-30T07:57:45;9.07;;;7.40;;
9729;SDS011;4904;49.152;11.004;2023-01-30T08:00:12;7.83;;;6.57;;
9729;SDS011;4904;49.152;11.004;2023-01-30T08:02:40;8.43;;;6.43;;
9729;SDS011;4904;49.152;11.004;2023-01-30T08:05:07;7.73;;;6.93;;
9729;SDS011;4904;49.152;11.004;2023-01-30T08:07:34;7.70;;;6.30;;
9729;SDS011;4904;49.152;11.004;2023-01-30T08:10:01;9.53;;;6.67;;
9729;SDS011;4904;49.152;11.004;2023-01-30T08:12:30;8.47;;;6.83;;
9729;SDS011;4904;49.152;11.004;2023-01-30T08:14:57;8.33;;;6.77;;
9729;SDS011;4904;49.152;11.004;2023-01-30T08:17:24;7.23;;;5.93;;
9729;SDS011;4904;49.152;11.004;2023-01-30T08:19:51;8.97;;;7.13;;
9729;SDS011;4904;49.152;11.004;2023-01-30T08:22:18;7.77;;;6.43;;
9729;SDS011;4904;49.152;11.004;2023-01-30T08:24:45;9.67;;;6.80;;
9729;SDS011;4904;49.152;11.004;2023-01-30T08:27:12;9.23;;;7.40;;
9729;SDS011;4904;49.152;11.004;2023-01-30T08:29:40;9.10;;;7.87;;
9729;SDS011;4904;49.152;11.004;2023-01-30T08:32:07;7.23;;;5.67;;
9729;SDS011;4904;49.152;11.004;2023-01-30T08:34:34;8.93;;;7.20;;
9729;SDS011;4904;49.152;11.004;2023-01-30T08:37:01;9.07;;;7.17;;
9729;SDS011;4904;49.152;11.004;2023-01-30T08:39:28;9.50;;;7.80;;
9729;SDS011;4904;49.152;11.004;2023-01-30T08:41:55;8.00;;;6.00;;
9729;SDS011;4904;49.152;11.004;2023-01-30T08:44:22;7.47;;;5.53;;
9729;SDS011;4904;49.152;11.004;2023-01-30T08:46:50;9.13;;;5.67;;
9729;SDS011;4904;49.152;11.004;2023-01-30T08:49:17;7.27;;;5.97;;
9729;SDS011;4904;49.152;11.004;2023-01-30T08:51:44;8.67;;;6.97;;
9729;SDS011;4904;49.152;11.004;2023-01-30T08:54:11;7.77;;;6.17;;
9729;SDS011;4904;49.152;11.004;2023-01-30T08:56:38;6.93;;;5.53;;
9729;SDS011;4904;49.152;11.004;2023-01-30T08:59:05;8.33;;;6.57;;
9729;SDS011;4904;49.152;11.004;2023-01-30T09:01:33;7.20;;;6.50;;
9729;SDS011;4904;49.152;11.004;2023-01-30T09:04:03;6.07;;;5.00;;
9729;SDS011;4904;49.152;11.004;2023-01-30T09:06:30;6.97;;;5.97;;
9729;SDS011;4904;49.152;11.004;2023-01-30T09:08:58;7.43;;;6.00;;
9729;SDS011;4904;49.152;11.004;2023-01-30T09:11:25;7.73;;;6.60;;
9729;SDS011;4904;49.152;11.004;2023-01-30T09:13:52;5.47;;;4.70;;
9729;SDS011;4904;49.152;11.004;2023-01-30T09:16:19;8.27;;;6.17;;
9729;SDS011;4904;49.152;11.004;2023-01-30T09:18:46;6.27;;;4.83;;
9729;SDS011;4904;49.152;11.004;2023-01-30T09:21:15;5.10;;;4.60;;
9729;SDS011;4904;49.152;11.004;2023-01-30T09:23:42;6.40;;;5.73;;
9729;SDS011;4904;49.152;11.004;2023-01-30T09:26:08;7.30;;;5.30;;
9729;SDS011;4904;49.152;11.004;2023-01-30T09:28:35;6.57;;;5.33;;
9729;SDS011;4904;49.152;11.004;2023-01-30T09:31:02;5.03;;;4.40;;
9729;SDS011;4904;49.152;11.004;2023-01-30T09:33:29;5.67;;;4.80;;
9729;SDS011;4904;49.152;11.004;2023-01-30T09:35:56;5.60;;;5.07;;
9729;SDS011;4904;49.152;11.004;2023-01-30T09:38:25;6.47;;;5.00;;
9729;SDS011;4904;49.152;11.004;2023-01-30T09:40:59;5.70;;;5.17;;
9729;SDS011;4904;49.152;11.004;2023-01-30T09:43:43;5.80;;;5.20;;
9729;SDS011;4904;49.152;11.004;2023-01-30T09:46:22;5.93;;;4.70;;
9729;SDS011;4904;49.152;11.004;2023-01-30T09:48:58;8.03;;;5.87;;
9729;SDS011;4904;49.152;11.004;2023-01-30T09:51:33;7.30;;;5.97;;
9729;SDS011;4904;49.152;11.004;2023-01-30T09:54:13;5.87;;;4.80;;
9729;SDS011;4904;49.152;11.004;2023-01-30T09:56:44;6.83;;;5.50;;
9729;SDS011;4904;49.152;11.004;2023-01-30T09:59:15;4.33;;;3.90;;
9729;SDS011;4904;49.152;11.004;2023-01-30T10:01:47;7.03;;;5.77;;
9729;SDS011;4904;49.152;11.004;2023-01-30T10:04:22;10.23;;;7.13;;
9729;SDS011;4904;49.152;11.004;2023-01-30T10:06:56;6.57;;;4.87;;
9729;SDS011;4904;49.152;11.004;2023-01-30T10:09:35;9.43;;;6.23;;
9729;SDS011;4904;49.152;11.004;2023-01-30T10:12:14;7.93;;;5.83;;
9729;SDS011;4904;49.152;11.004;2023-01-30T10:14:56;7.87;;;5.10;;
9729;SDS011;4904;49.152;11.004;2023-01-30T10:17:47;7.87;;;6.20;;
9729;SDS011;4904;49.152;11.004;2023-01-30T10:20:28;6.77;;;5.67;;
9729;SDS011;4904;49.152;11.004;2023-01-30T10:23:19;8.17;;;6.50;;
9729;SDS011;4904;49.152;11.004;2023-01-30T10:26:07;8.13;;;6.70;;
9729;SDS011;4904;49.152;11.004;2023-01-30T10:28:37;7.17;;;5.67;;
9729;SDS011;4904;49.152;11.004;2023-01-30T10:31:09;6.97;;;6.17;;
9729;SDS011;4904;49.152;11.004;2023-01-30T10:33:37;6.73;;;6.03;;
9729;SDS011;4904;49.152;11.004;2023-01-30T10:36:10;8.67;;;5.87;;
9729;SDS011;4904;49.152;11.004;2023-01-30T10:38:40;6.50;;;5.27;;
9729;SDS011;4904;49.152;11.004;2023-01-30T10:41:16;6.30;;;5.03;;
9729;SDS011;4904;49.152;11.004;2023-01-30T10:43:52;5.40;;;4.50;;
9729;SDS011;4904;49.152;11.004;2023-01-30T10:46:28;6.77;;;5.17;;
9729;SDS011;4904;49.152;11.004;2023-01-30T10:49:10;6.43;;;5.57;;
9729;SDS011;4904;49.152;11.004;2023-01-30T10:51:45;6.00;;;5.23;;
9729;SDS011;4904;49.152;11.004;2023-01-30T10:54:22;5.13;;;4.63;;
9729;SDS011;4904;49.152;11.004;2023-01-30T10:56:54;5.77;;;5.17;;
9729;SDS011;4904;49.152;11.004;2023-01-30T10:59:30;5.47;;;4.57;;
9729;SDS011;4904;49.152;11.004;2023-01-30T11:02:11;5.50;;;4.43;;
9729;SDS011;4904;49.152;11.004;2023-01-30T11:04:49;4.90;;;4.10;;
9729;SDS011;4904;49.152;11.004;2023-01-30T11:07:22;5.30;;;4.80;;
9729;SDS011;4904;49.152;11.004;2023-01-30T11:09:49;5.37;;;4.47;;
9729;SDS011;4904;49.152;11.004;2023-01-30T11:12:18;5.40;;;3.27;;
9729;SDS011;4904;49.152;11.004;2023-01-30T11:14:48;5.30;;;4.80;;
9729;SDS011;4904;49.152;11.004;2023-01-30T11:17:21;5.97;;;3.87;;
9729;SDS011;4904;49.152;11.004;2023-01-30T11:19:56;4.50;;;3.87;;
9729;SDS011;4904;49.152;11.004;2023-01-30T11:22:27;4.37;;;3.37;;
9729;SDS011;4904;49.152;11.004;2023-01-30T11:25:02;4.30;;;3.10;;
9729;SDS011;4904;49.152;11.004;2023-01-30T11:27:33;5.53;;;4.13;;
9729;SDS011;4904;49.152;11.004;2023-01-30T11:30:02;3.27;;;2.97;;
9729;SDS011;4904;49.152;11.004;2023-01-30T11:32:31;5.37;;;4.00;;
9729;SDS011;4904;49.152;11.004;2023-01-30T11:35:02;5.13;;;4.10;;
9729;SDS011;4904;49.152;11.004;2023-01-30T11:37:51;4.53;;;4.10;;
9729;SDS011;4904;49.152;11.004;2023-01-30T11:40:23;5.23;;;3.57;;
9729;SDS011;4904;49.152;11.004;2023-01-30T11:42:58;4.67;;;4.10;;
9729;SDS011;4904;49.152;11.004;2023-01-30T11:45:30;4.97;;;4.47;;
9729;SDS011;4904;49.152;11.004;2023-01-30T11:48:03;4.10;;;3.33;;
9729;SDS011;4904;49.152;11.004;2023-01-30T11:50:38;4.70;;;4.20;;
9729;SDS011;4904;49.152;11.004;2023-01-30T11:53:13;4.83;;;4.00;;
9729;SDS011;4904;49.152;11.004;2023-01-30T11:55:54;4.00;;;3.40;;
9729;SDS011;4904;49.152;11.004;2023-01-30T11:58:28;3.77;;;3.27;;
9729;SDS011;4904;49.152;11.004;2023-01-30T12:00:57;4.90;;;3.50;;
9729;SDS011;4904;49.152;11.004;2023-01-30T12:03:26;4.13;;;3.33;;
9729;SDS011;4904;49.152;11.004;2023-01-30T12:05:54;5.17;;;4.50;;
9729;SDS011;4904;49.152;11.004;2023-01-30T12:08:25;5.30;;;4.03;;
9729;SDS011;4904;49.152;11.004;2023-01-30T12:10:58;5.90;;;4.63;;
9729;SDS011;4904;49.152;11.004;2023-01-30T12:13:29;5.67;;;4.33;;
9729;SDS011;4904;49.152;11.004;2023-01-30T12:16:09;5.37;;;4.07;;
9729;SDS011;4904;49.152;11.004;2023-01-30T12:18:44;3.87;;;3.00;;
9729;SDS011;4904;49.152;11.004;2023-01-30T12:21:22;7.03;;;4.20;;
9729;SDS011;4904;49.152;11.004;2023-01-30T12:23:58;4.07;;;3.53;;
9729;SDS011;4904;49.152;11.004;2023-01-30T12:26:32;3.97;;;3.00;;
9729;SDS011;4904;49.152;11.004;2023-01-30T12:29:05;5.53;;;4.53;;
9729;SDS011;4904;49.152;11.004;2023-01-30T12:31:47;5.70;;;4.00;;
9729;SDS011;4904;49.152;11.004;2023-01-30T12:34:22;4.57;;;3.60;;
9729;SDS011;4904;49.152;11.004;2023-01-30T12:36:52;3.67;;;2.97;;
9729;SDS011;4904;49.152;11.004;2023-01-30T12:39:30;3.17;;;2.87;;
9729;SDS011;4904;49.152;11.004;2023-01-30T12:42:18;5.07;;;3.57;;
9729;SDS011;4904;49.152;11.004;2023-01-30T12:47:51;3.70;;;3.37;;
9729;SDS011;4904;49.152;11.004;2023-01-30T12:50:41;4.33;;;3.93;;
9729;SDS011;4904;49.152;11.004;2023-01-30T12:53:25;4.73;;;4.23;;
9729;SDS011;4904;49.152;11.004;2023-01-30T12:56:02;4.10;;;3.70;;
9729;SDS011;4904;49.152;11.004;2023-01-30T12:58:49;4.77;;;4.07;;
9729;SDS011;4904;49.152;11.004;2023-01-30T13:01:23;4.10;;;3.37;;
9729;SDS011;4904;49.152;11.004;2023-01-30T13:03:57;3.93;;;3.50;;
9729;SDS011;4904;49.152;11.004;2023-01-30T13:06:35;4.30;;;3.27;;
9729;SDS011;4904;49.152;11.004;2023-01-30T13:09:14;5.23;;;4.73;;
9729;SDS011;4904;49.152;11.004;2023-01-30T13:11:56;4.83;;;4.33;;
9729;SDS011;4904;49.152;11.004;2023-01-30T13:14:31;4.43;;;3.57;;
9729;SDS011;4904;49.152;11.004;2023-01-30T13:17:11;4.57;;;4.00;;
9729;SDS011;4904;49.152;11.004;2023-01-30T13:19:51;5.23;;;4.73;;
9729;SDS011;4904;49.152;11.004;2023-01-30T13:22:26;4.07;;;3.60;;
9729;SDS011;4904;49.152;11.004;2023-01-30T13:25:01;5.67;;;5.10;;
9729;SDS011;4904;49.152;11.004;2023-01-30T13:27:33;4.97;;;4.50;;
9729;SDS011;4904;49.152;11.004;2023-01-30T13:30:04;4.07;;;3.17;;
9729;SDS011;4904;49.152;11.004;2023-01-30T13:32:37;4.83;;;4.07;;
9729;SDS011;4904;49.152;11.004;2023-01-30T13:35:09;5.53;;;4.37;;
9729;SDS011;4904;49.152;11.004;2023-01-30T13:37:41;7.03;;;3.37;;
9729;SDS011;4904;49.152;11.004;2023-01-30T13:40:12;4.90;;;4.37;;
9729;SDS011;4904;49.152;11.004;2023-01-30T13:42:43;5.10;;;4.60;;
9729;SDS011;4904;49.152;11.004;2023-01-30T13:45:15;3.63;;;3.30;;
9729;SDS011;4904;49.152;11.004;2023-01-30T13:47:50;6.50;;;4.60;;
9729;SDS011;4904;49.152;11.004;2023-01-30T13:50:33;5.40;;;4.67;;
9729;SDS011;4904;49.152;11.004;2023-01-30T13:53:12;3.50;;;3.20;;
9729;SDS011;4904;49.152;11.004;2023-01-30T13:55:46;5.20;;;4.70;;
9729;SDS011;4904;49.152;11.004;2023-01-30T13:58:26;8.83;;;4.80;;
9729;SDS011;4904;49.152;11.004;2023-01-30T14:01:07;4.93;;;3.33;;
9729;SDS011;4904;49.152;11.004;2023-01-30T14:03:36;5.73;;;3.60;;
9729;SDS011;4904;49.152;11.004;2023-01-30T14:09:00;6.40;;;4.17;;
9729;SDS011;4904;49.152;11.004;2023-01-30T14:11:32;4.10;;;3.70;;
9729;SDS011;4904;49.152;11.004;2023-01-30T14:14:19;4.37;;;3.70;;
9729;SDS011;4904;49.152;11.004;2023-01-30T14:16:50;3.80;;;3.40;;
9729;SDS011;4904;49.152;11.004;2023-01-30T14:19:27;5.37;;;3.90;;
9729;SDS011;4904;49.152;11.004;2023-01-30T14:40:27;5.07;;;4.57;;
9729;SDS011;4904;49.152;11.004;2023-01-30T14:46:05;4.57;;;3.57;;
9729;SDS011;4904;49.152;11.004;2023-01-30T14:48:54;4.80;;;3.53;;
9729;SDS011;4904;49.152;11.004;2023-01-30T14:51:30;5.70;;;3.40;;
9729;SDS011;4904;49.152;11.004;2023-01-30T14:54:01;3.90;;;3.20;;
9729;SDS011;4904;49.152;11.004;2023-01-30T14:56:38;3.43;;;3.13;;
9729;SDS011;4904;49.152;11.004;2023-01-30T14:59:08;2.93;;;2.63;;
9729;SDS011;4904;49.152;11.004;2023-01-30T15:01:51;3.43;;;2.50;;
9729;SDS011;4904;49.152;11.004;2023-01-30T15:04:25;3.33;;;2.90;;
9729;SDS011;4904;49.152;11.004;2023-01-30T15:06:55;3.17;;;2.87;;
9729;SDS011;4904;49.152;11.004;2023-01-30T15:09:25;2.97;;;2.67;;
9729;SDS011;4904;49.152;11.004;2023-01-30T15:11:56;4.43;;;3.67;;
9729;SDS011;4904;49.152;11.004;2023-01-30T15:14:36;3.60;;;2.80;;
9729;SDS011;4904;49.152;11.004;2023-01-30T15:17:13;2.50;;;2.30;;
9729;SDS011;4904;49.152;11.004;2023-01-30T15:19:50;2.70;;;2.50;;
9729;SDS011;4904;49.152;11.004;2023-01-30T15:22:33;2.97;;;2.47;;
9729;SDS011;4904;49.152;11.004;2023-01-30T15:25:17;3.03;;;2.73;;
9729;SDS011;4904;49.152;11.004;2023-01-30T15:27:54;3.43;;;3.13;;
9729;SDS011;4904;49.152;11.004;2023-01-30T15:30:31;3.17;;;2.80;;
9729;SDS011;4904;49.152;11.004;2023-01-30T15:33:21;3.13;;;2.83;;
9729;SDS011;4904;49.152;11.004;2023-01-30T15:35:49;3.80;;;3.20;;
9729;SDS011;4904;49.152;11.004;2023-01-30T15:38:24;5.37;;;3.23;;
9729;SDS011;4904;49.152;11.004;2023-01-30T15:40:53;3.83;;;3.10;;
9729;SDS011;4904;49.152;11.004;2023-01-30T15:43:32;3.93;;;3.20;;
9729;SDS011;4904;49.152;11.004;2023-01-30T15:46:14;5.27;;;4.03;;
9729;SDS011;4904;49.152;11.004;2023-01-30T15:48:50;4.50;;;3.30;;